Time;durP1;ratioP1;P1;durP2;ratioP2;P2;SDS_P1;SDS_P2;PMS_P1;PMS_P2;Temp;Humidity;BMP_temperature;BMP_pressure;BME280_temperature;BME280_humidity;BME280_pressure;Samples;Min_cycle;Max_cycle;Signal;HPM_P1;HPM_P2
2024/01/24 00:00:33;;;;;;;3.65;1.42;;;9.90;57.10;;;;;;5043504;28;20057;-76
2024/01/24 00:03:02;;;;;;;2.72;1.80;;;9.90;57.30;;;;;;5054561;28;20395;-72
2024/01/24 00:05:31;;;;;;;10.90;2.22;;;9.80;57.30;;;;;;5045036;28;20053;-75
2024/01/24 00:07:59;;;;;;;5.38;1.63;;;9.80;58.10;;;;;;5050552;28;20057;-74
2024/01/24 00:10:27;;;;;;;1.60;0.73;;;9.80;57.70;;;;;;5069808;28;20124;-75
2024/01/24 00:12:56;;;;;;;0.90;0.65;;;9.70;58.10;;;;;;5051884;28;20056;-73
2024/01/24 00:15:27;;;;;;;2.83;1.10;;;9.60;58.20;;;;;;5045577;28;20056;-75
2024/01/24 00:17:55;;;;;;;1.65;1.13;;;9.60;58.30;;;;;;5049685;28;20578;-76
2024/01/24 00:20:23;;;;;;;4.10;1.23;;;9.60;58.60;;;;;;5044544;28;20040;-74
2024/01/24 00:22:52;;;;;;;1.40;1.20;;;9.60;58.50;;;;;;5048783;28;20057;-74
2024/01/24 00:25:20;;;;;;;2.85;1.23;;;9.50;58.80;;;;;;5044169;28;21032;-74
2024/01/24 00:27:49;;;;;;;1.80;1.42;;;9.40;59.00;;;;;;5048264;28;20057;-82
2024/01/24 00:30:17;;;;;;;2.65;1.35;;;9.30;59.00;;;;;;5047103;28;20053;-84
2024/01/24 00:32:47;;;;;;;4.43;1.58;;;9.20;59.60;;;;;;5047551;28;20061;-75
2024/01/24 00:35:16;;;;;;;2.60;1.45;;;9.20;59.20;;;;;;5037542;28;20235;-79
2024/01/24 00:37:45;;;;;;;1.88;1.27;;;8.90;59.10;;;;;;5054995;28;21114;-77
2024/01/24 00:40:13;;;;;;;3.45;1.38;;;9.10;59.30;;;;;;5064437;28;20076;-78
2024/01/24 00:46:48;;;;;;;4.28;1.20;;;9.00;59.80;;;;;;5057848;28;20338;-75
2024/01/24 00:49:19;;;;;;;3.85;1.30;;;8.90;60.00;;;;;;5059910;28;20051;-75
2024/01/24 00:51:48;;;;;;;0.65;0.65;;;8.80;60.20;;;;;;5047823;28;20166;-75
2024/01/24 00:54:18;;;;;;;1.85;0.93;;;8.90;60.70;;;;;;5051478;28;20052;-74
2024/01/24 00:56:47;;;;;;;1.58;1.48;;;8.90;60.90;;;;;;5045001;28;20060;-75
2024/01/24 00:59:16;;;;;;;2.05;1.00;;;8.90;61.00;;;;;;5054025;28;20049;-73
2024/01/24 01:01:45;;;;;;;2.17;1.58;;;8.90;60.80;;;;;;5049170;28;20118;-74
2024/01/24 01:04:14;;;;;;;8.38;0.98;;;8.90;61.30;;;;;;5046977;28;20048;-72
2024/01/24 01:06:45;;;;;;;0.90;0.65;;;8.90;60.90;;;;;;5050114;28;20142;-74
2024/01/24 01:09:14;;;;;;;0.68;0.68;;;8.90;61.20;;;;;;5041589;28;20139;-72
2024/01/24 01:11:43;;;;;;;0.50;0.50;;;8.90;61.50;;;;;;5045178;28;20148;-72
2024/01/24 01:14:13;;;;;;;0.40;0.40;;;8.80;61.60;;;;;;5046051;28;20080;-72
2024/01/24 01:16:42;;;;;;;0.77;0.77;;;8.90;61.40;;;;;;5068230;28;20789;-75
2024/01/24 01:19:11;;;;;;;0.50;0.50;;;8.90;61.40;;;;;;5036004;28;20057;-75
2024/01/24 01:21:40;;;;;;;0.50;0.50;;;8.90;61.40;;;;;;5045576;28;20056;-76
2024/01/24 01:24:11;;;;;;;2.25;1.67;;;8.90;61.70;;;;;;5065222;28;20044;-76
2024/01/24 01:26:40;;;;;;;4.78;1.80;;;8.90;61.60;;;;;;5049772;28;20143;-74
2024/01/24 01:29:08;;;;;;;0.90;0.90;;;8.90;61.70;;;;;;5044516;28;20505;-77
2024/01/24 01:31:37;;;;;;;0.32;0.32;;;8.90;61.50;;;;;;5062674;28;20060;-78
2024/01/24 01:34:05;;;;;;;0.30;0.30;;;9.20;62.00;;;;;;5054610;28;20120;-86
2024/01/24 01:36:33;;;;;;;0.70;0.60;;;8.90;61.40;;;;;;5046367;28;20137;-77
2024/01/24 01:39:03;;;;;;;0.40;0.40;;;8.90;61.40;;;;;;5050838;28;20053;-78
2024/01/24 01:41:36;;;;;;;0.47;0.47;;;8.90;61.40;;;;;;5043352;28;20052;-78
2024/01/24 01:44:05;;;;;;;0.30;0.30;;;8.90;61.40;;;;;;5048708;28;20529;-77
2024/01/24 01:46:34;;;;;;;0.40;0.40;;;8.90;61.70;;;;;;5046066;28;20064;-76
2024/01/24 01:49:02;;;;;;;0.47;0.47;;;9.00;61.70;;;;;;5042832;28;20624;-78
2024/01/24 01:51:31;;;;;;;1.20;1.10;;;9.00;61.70;;;;;;5066119;28;20044;-74
2024/01/24 01:54:00;;;;;;;0.93;0.70;;;9.00;61.70;;;;;;5060800;28;20044;-75
2024/01/24 01:56:29;;;;;;;0.75;0.75;;;9.10;61.70;;;;;;5043458;28;20491;-76
2024/01/24 01:58:59;;;;;;;0.50;0.50;;;9.10;61.60;;;;;;5044898;28;20052;-73
2024/01/24 02:01:28;;;;;;;0.40;0.40;;;9.10;61.70;;;;;;5042031;28;20151;-77
2024/01/24 02:03:56;;;;;;;0.40;0.40;;;9.10;61.70;;;;;;5046510;28;20689;-77
2024/01/24 02:06:25;;;;;;;0.52;0.52;;;9.20;61.70;;;;;;5045748;28;20060;-77
2024/01/24 02:08:53;;;;;;;0.50;0.50;;;9.20;61.50;;;;;;5055009;28;20080;-77
2024/01/24 02:11:22;;;;;;;0.30;0.30;;;9.30;61.50;;;;;;5046355;28;20128;-76
2024/01/24 02:13:54;;;;;;;1.10;0.60;;;9.30;61.70;;;;;;5062547;28;20057;-74
2024/01/24 02:16:23;;;;;;;0.63;0.63;;;9.40;61.60;;;;;;5044435;28;20143;-78
2024/01/24 02:18:51;;;;;;;0.45;0.45;;;9.40;61.50;;;;;;5046941;28;20057;-76
2024/01/24 02:21:20;;;;;;;0.82;0.82;;;9.40;61.60;;;;;;5038852;28;21703;-75
2024/01/24 02:23:48;;;;;;;0.55;0.55;;;9.40;61.70;;;;;;5043457;28;20122;-74
2024/01/24 02:26:18;;;;;;;0.40;0.40;;;9.60;62.70;;;;;;5048641;28;20071;-75
2024/01/24 02:28:46;;;;;;;0.30;0.30;;;9.60;61.80;;;;;;5044900;28;20053;-75
2024/01/24 02:31:15;;;;;;;0.60;0.60;;;9.70;61.90;;;;;;5039492;28;20052;-77
2024/01/24 02:33:43;;;;;;;0.60;0.60;;;9.70;62.10;;;;;;5051950;28;20057;-77
2024/01/24 02:36:14;;;;;;;2.55;1.83;;;9.80;62.10;;;;;;5054457;28;20523;-78
2024/01/24 02:38:43;;;;;;;0.50;0.50;;;9.90;62.20;;;;;;5066846;28;20045;-76
2024/01/24 02:41:11;;;;;;;0.30;0.30;;;9.90;62.10;;;;;;5044195;28;20053;-76
2024/01/24 02:43:41;;;;;;;1.45;1.35;;;10.00;62.10;;;;;;5052601;28;20052;-78
2024/01/24 02:46:09;;;;;;;0.22;0.22;;;10.00;62.30;;;;;;5045599;28;20134;-76
2024/01/24 02:48:38;;;;;;;0.30;0.30;;;10.10;62.40;;;;;;5043604;28;21578;-78
2024/01/24 02:51:06;;;;;;;0.32;0.32;;;10.10;62.20;;;;;;5043743;28;20055;-79
2024/01/24 02:53:35;;;;;;;0.50;0.50;;;10.20;62.30;;;;;;5043822;28;20078;-76
2024/01/24 02:56:03;;;;;;;0.57;0.40;;;10.20;63.00;;;;;;5052203;28;20049;-78
2024/01/24 02:58:32;;;;;;;0.20;0.20;;;10.30;62.20;;;;;;5046444;28;20044;-76
2024/01/24 03:01:02;;;;;;;0.47;0.47;;;10.40;62.20;;;;;;5048329;28;20052;-77
2024/01/24 03:03:30;;;;;;;0.50;0.50;;;10.40;62.20;;;;;;5047348;28;20489;-84
2024/01/24 03:05:59;;;;;;;0.40;0.40;;;10.50;62.20;;;;;;5048534;28;20503;-77
2024/01/24 03:08:27;;;;;;;0.35;0.35;;;10.50;62.20;;;;;;5054793;28;20134;-75
2024/01/24 03:10:56;;;;;;;0.20;0.20;;;10.60;62.10;;;;;;5054966;28;20057;-76
2024/01/24 03:13:24;;;;;;;0.75;0.75;;;10.60;62.00;;;;;;5050562;28;20060;-75
2024/01/24 03:15:53;;;;;;;4.50;2.03;;;10.70;62.20;;;;;;5053575;28;20107;-77
2024/01/24 03:18:23;;;;;;;2.35;0.40;;;10.80;62.10;;;;;;5047047;28;20056;-76
2024/01/24 03:20:53;;;;;;;0.20;0.20;;;10.80;62.00;;;;;;5065579;28;20059;-76
2024/01/24 03:23:24;;;;;;;0.20;0.20;;;10.90;62.10;;;;;;5040436;28;20621;-75
2024/01/24 03:25:52;;;;;;;0.40;0.40;;;11.00;62.00;;;;;;5063831;28;20056;-75
2024/01/24 03:28:21;;;;;;;0.20;0.20;;;11.10;61.80;;;;;;5047583;28;20491;-75
2024/01/24 03:30:49;;;;;;;1.60;1.35;;;11.20;61.70;;;;;;5042540;28;20053;-75
2024/01/24 03:33:18;;;;;;;0.20;0.20;;;11.20;61.70;;;;;;5060122;28;20044;-75
2024/01/24 03:35:47;;;;;;;0.93;0.60;;;11.30;61.60;;;;;;5042706;28;20066;-75
2024/01/24 03:38:16;;;;;;;0.32;0.32;;;11.30;61.50;;;;;;5048157;28;20058;-74
2024/01/24 03:40:44;;;;;;;1.33;0.28;;;11.40;61.50;;;;;;5048184;28;20057;-74
2024/01/24 03:43:13;;;;;;;0.20;0.20;;;11.40;61.40;;;;;;5046594;28;20053;-76
2024/01/24 03:45:41;;;;;;;0.40;0.40;;;11.50;61.60;;;;;;5049169;28;20064;-74
2024/01/24 03:48:10;;;;;;;0.40;0.40;;;11.50;61.40;;;;;;5044628;28;20768;-73
2024/01/24 03:50:39;;;;;;;2.20;0.55;;;11.50;61.50;;;;;;5047818;28;20041;-76
2024/01/24 03:53:09;;;;;;;0.40;0.40;;;11.60;61.50;;;;;;5040218;28;20693;-75
2024/01/24 03:55:38;;;;;;;0.20;0.20;;;11.60;61.40;;;;;;5063370;28;20037;-75
2024/01/24 03:58:06;;;;;;;0.43;0.43;;;11.70;61.40;;;;;;5043749;28;20514;-74
2024/01/24 04:00:35;;;;;;;0.20;0.20;;;11.80;61.50;;;;;;5050574;28;20060;-74
2024/01/24 04:03:04;;;;;;;0.20;0.20;;;11.90;61.40;;;;;;5039527;28;20053;-78
2024/01/24 04:05:32;;;;;;;0.22;0.22;;;11.90;61.40;;;;;;5064168;28;20110;-74
2024/01/24 04:08:01;;;;;;;0.20;0.20;;;12.00;61.30;;;;;;5046526;28;20044;-75
2024/01/24 04:10:31;;;;;;;3.20;0.85;;;12.10;61.20;;;;;;5061231;28;20060;-75
2024/01/24 04:12:59;;;;;;;0.30;0.30;;;12.20;61.10;;;;;;5042837;28;20123;-74
2024/01/24 04:15:28;;;;;;;2.35;0.75;;;12.20;61.00;;;;;;5045155;28;20051;-75
2024/01/24 04:17:55;;;;;;;0.28;0.28;;;12.30;60.90;;;;;;5058239;28;20053;-76
2024/01/24 04:20:24;;;;;;;0.20;0.20;;;12.30;60.80;;;;;;5047323;28;20064;-75
2024/01/24 04:22:52;;;;;;;0.70;0.70;;;12.40;60.80;;;;;;5050762;28;20048;-76
2024/01/24 04:25:21;;;;;;;0.50;0.50;;;12.40;60.80;;;;;;5043110;28;20061;-76
2024/01/24 04:27:51;;;;;;;0.32;0.32;;;12.30;60.60;;;;;;5044823;28;20157;-74
2024/01/24 04:30:20;;;;;;;0.50;0.50;;;12.30;60.60;;;;;;5052240;28;20044;-74
2024/01/24 04:32:48;;;;;;;0.25;0.25;;;12.20;60.50;;;;;;5051173;28;20060;-74
2024/01/24 04:35:18;;;;;;;0.30;0.30;;;12.20;60.70;;;;;;5047041;28;20132;-78
2024/01/24 04:37:47;;;;;;;0.80;0.80;;;12.20;60.90;;;;;;5053887;28;20625;-75
2024/01/24 04:40:15;;;;;;;0.30;0.30;;;12.20;61.00;;;;;;5047871;28;20060;-75
2024/01/24 04:42:44;;;;;;;0.38;0.38;;;12.20;60.90;;;;;;5050885;28;20057;-74
2024/01/24 04:45:23;;;;;;;0.20;0.20;;;12.30;60.90;;;;;;5038900;28;20052;-73
2024/01/24 04:47:59;;;;;;;0.22;0.22;;;12.30;60.90;;;;;;5038746;28;20487;-72
2024/01/24 04:50:28;;;;;;;0.40;0.40;;;12.40;60.80;;;;;;5051005;28;20059;-76
2024/01/24 04:52:57;;;;;;;0.30;0.30;;;12.40;60.70;;;;;;5044041;28;20086;-72
2024/01/24 04:55:26;;;;;;;3.70;0.50;;;12.50;60.60;;;;;;5050068;28;20059;-72
2024/01/24 04:57:54;;;;;;;0.40;0.40;;;12.60;60.60;;;;;;5041370;28;20056;-73
2024/01/24 05:00:25;;;;;;;0.45;0.45;;;12.60;60.50;;;;;;5047319;28;20071;-74
2024/01/24 05:02:53;;;;;;;0.20;0.20;;;12.60;60.30;;;;;;5044105;28;20053;-71
2024/01/24 05:05:22;;;;;;;0.95;0.55;;;12.40;60.40;;;;;;5043692;28;20052;-72
2024/01/24 05:07:51;;;;;;;0.20;0.20;;;12.30;60.50;;;;;;5060935;28;20428;-73
2024/01/24 05:10:19;;;;;;;0.57;0.57;;;12.20;60.80;;;;;;5051661;28;20045;-71
2024/01/24 05:12:48;;;;;;;0.28;0.28;;;12.20;60.90;;;;;;5045809;28;20251;-74
2024/01/24 05:15:17;;;;;;;0.20;0.20;;;12.20;60.90;;;;;;5049944;28;20060;-73
2024/01/24 05:17:47;;;;;;;0.40;0.40;;;12.20;60.90;;;;;;5045053;28;20129;-74
2024/01/24 05:20:17;;;;;;;0.65;0.65;;;12.20;60.90;;;;;;5039286;28;20075;-74
2024/01/24 05:22:47;;;;;;;0.45;0.22;;;12.20;61.00;;;;;;5045472;28;20052;-72
2024/01/24 05:25:16;;;;;;;0.68;0.68;;;12.20;60.80;;;;;;5050617;28;20419;-72
2024/01/24 05:27:45;;;;;;;0.32;0.32;;;12.20;60.70;;;;;;5042652;28;20056;-73
2024/01/24 05:30:14;;;;;;;0.40;0.40;;;12.20;60.90;;;;;;5056740;28;20636;-72
2024/01/24 05:32:59;;;;;;;0.50;0.50;;;12.20;60.70;;;;;;5059493;28;20053;-72
2024/01/24 05:35:29;;;;;;;0.25;0.25;;;12.20;60.80;;;;;;5038953;28;20053;-73
2024/01/24 05:37:58;;;;;;;0.40;0.40;;;12.20;60.90;;;;;;5058723;28;20057;-73
2024/01/24 05:40:29;;;;;;;0.50;0.50;;;12.10;60.70;;;;;;5059250;28;20049;-73
2024/01/24 05:43:02;;;;;;;0.32;0.32;;;12.10;60.80;;;;;;5047216;28;20509;-63
2024/01/24 05:45:32;;;;;;;0.93;0.90;;;12.10;60.90;;;;;;5036761;28;20084;-72
2024/01/24 05:48:02;;;;;;;0.40;0.40;;;12.10;61.00;;;;;;5042608;28;20049;-64
2024/01/24 05:50:30;;;;;;;1.10;1.00;;;12.20;61.00;;;;;;5041703;28;20216;-63
2024/01/24 05:53:04;;;;;;;1.15;0.85;;;12.30;60.90;;;;;;5038901;28;20052;-63
2024/01/24 05:55:34;;;;;;;2.00;0.87;;;12.30;60.90;;;;;;5044743;28;20052;-63
2024/01/24 05:58:05;;;;;;;2.58;1.30;;;12.30;60.90;;;;;;5039971;28;20041;-63
2024/01/24 06:00:34;;;;;;;1.25;0.90;;;12.30;60.90;;;;;;5042123;28;20142;-64
2024/01/24 06:03:05;;;;;;;6.00;1.25;;;12.30;60.90;;;;;;5038123;28;20060;-76
2024/01/24 06:05:33;;;;;;;2.10;1.00;;;12.50;61.10;;;;;;5042051;28;20095;-65
2024/01/24 06:08:02;;;;;;;1.20;0.98;;;12.50;60.70;;;;;;5043631;28;20064;-64
2024/01/24 06:10:31;;;;;;;4.97;1.73;;;12.60;60.70;;;;;;5051467;28;20191;-63
2024/01/24 06:12:59;;;;;;;6.00;1.55;;;12.80;60.50;;;;;;5048178;28;20137;-64
2024/01/24 06:15:28;;;;;;;0.85;0.85;;;12.80;60.20;;;;;;5037921;28;20465;-64
2024/01/24 06:17:57;;;;;;;4.15;2.15;;;12.90;60.10;;;;;;5040841;28;20049;-65
2024/01/24 06:20:27;;;;;;;9.10;1.98;;;12.90;60.00;;;;;;5049262;28;20619;-64
2024/01/24 06:22:56;;;;;;;4.85;2.30;;;13.00;60.00;;;;;;5064099;28;20109;-65
2024/01/24 06:25:25;;;;;;;2.45;1.00;;;13.00;59.90;;;;;;5046535;28;20060;-66
2024/01/24 06:27:54;;;;;;;5.95;1.80;;;13.00;59.80;;;;;;5050742;28;20067;-65
2024/01/24 06:30:23;;;;;;;5.88;1.77;;;13.00;60.60;;;;;;5057289;28;20505;-64
2024/01/24 06:32:53;;;;;;;8.68;2.15;;;13.00;59.90;;;;;;5048579;28;20609;-65
2024/01/24 06:35:22;;;;;;;6.88;2.63;;;13.00;60.20;;;;;;5050265;28;20045;-63
2024/01/24 06:37:52;;;;;;;5.10;1.60;;;13.00;60.10;;;;;;5051621;28;20056;-64
2024/01/24 06:40:20;;;;;;;7.18;2.53;;;13.10;59.90;;;;;;5053546;28;20052;-64
2024/01/24 06:42:50;;;;;;;6.75;2.58;;;13.10;59.90;;;;;;5060165;28;20052;-66
2024/01/24 06:45:20;;;;;;;5.72;2.42;;;13.10;59.80;;;;;;5064568;28;20048;-65
2024/01/24 06:47:48;;;;;;;5.25;2.55;;;13.20;59.80;;;;;;5060019;28;20180;-62
2024/01/24 06:50:18;;;;;;;7.25;2.33;;;13.30;59.70;;;;;;5054222;28;20048;-65
2024/01/24 06:52:47;;;;;;;4.55;1.92;;;13.30;59.80;;;;;;5054914;28;20052;-63
2024/01/24 06:55:17;;;;;;;3.55;1.63;;;13.40;59.60;;;;;;5059538;28;20053;-62
2024/01/24 06:57:46;;;;;;;4.22;1.98;;;13.40;59.50;;;;;;5056237;28;20072;-65
2024/01/24 07:00:15;;;;;;;6.47;2.80;;;13.50;59.40;;;;;;5051701;28;21289;-66
2024/01/24 07:02:44;;;;;;;12.60;3.03;;;13.50;59.40;;;;;;5054277;28;20094;-63
2024/01/24 07:05:13;;;;;;;10.90;2.83;;;13.50;59.30;;;;;;5038958;28;20142;-64
2024/01/24 07:07:43;;;;;;;5.55;2.38;;;13.50;59.30;;;;;;5054670;28;20053;-66
2024/01/24 07:10:12;;;;;;;11.20;3.33;;;13.50;59.20;;;;;;5054234;28;20818;-64
2024/01/24 07:12:45;;;;;;;9.30;3.33;;;13.50;59.20;;;;;;5049175;28;20126;-63
2024/01/24 07:15:16;;;;;;;14.83;3.90;;;13.50;59.20;;;;;;5044208;28;20057;-64
2024/01/24 07:17:45;;;;;;;8.60;3.65;;;13.50;59.20;;;;;;5051135;28;20046;-66
2024/01/24 07:20:15;;;;;;;5.70;2.78;;;13.60;59.20;;;;;;5049966;28;20045;-64
2024/01/24 07:22:44;;;;;;;5.88;2.42;;;13.60;59.10;;;;;;5058728;28;20114;-63
2024/01/24 07:25:12;;;;;;;8.50;3.67;;;13.70;59.10;;;;;;5044238;28;20538;-65
2024/01/24 07:27:44;;;;;;;12.50;4.18;;;13.70;59.00;;;;;;5053901;28;20756;-64
2024/01/24 07:30:15;;;;;;;8.15;3.13;;;13.70;58.90;;;;;;5045290;28;20406;-64
2024/01/24 07:32:44;;;;;;;20.08;4.97;;;13.70;58.90;;;;;;5049589;28;20099;-62
2024/01/24 07:35:12;;;;;;;7.45;3.58;;;13.80;58.90;;;;;;5044152;28;20065;-64
2024/01/24 07:37:41;;;;;;;11.40;2.97;;;13.70;58.80;;;;;;5053750;28;20060;-64
2024/01/24 07:40:11;;;;;;;2.97;2.03;;;13.70;58.90;;;;;;5055451;28;20706;-65
2024/01/24 07:42:39;;;;;;;20.13;3.70;;;13.70;58.70;;;;;;5063689;28;20053;-64
2024/01/24 07:45:12;;;;;;;5.82;2.70;;;13.70;58.90;;;;;;5047882;28;20053;-64
2024/01/24 07:47:40;;;;;;;28.13;2.67;;;13.70;58.90;;;;;;5045452;28;20056;-65
2024/01/24 07:50:11;;;;;;;3.67;1.92;;;13.70;59.00;;;;;;5054698;28;20064;-63
2024/01/24 07:52:40;;;;;;;3.75;2.00;;;13.80;58.90;;;;;;5052345;28;20442;-65
2024/01/24 07:55:11;;;;;;;6.85;2.58;;;13.80;58.80;;;;;;5048560;28;20590;-63
2024/01/24 07:57:41;;;;;;;20.55;3.00;;;13.90;58.80;;;;;;5048632;28;20562;-66
2024/01/24 08:00:16;;;;;;;9.82;2.65;;;13.90;58.70;;;;;;5053049;28;20466;-64
2024/01/24 08:02:46;;;;;;;10.80;4.30;;;13.90;58.70;;;;;;5050211;28;20535;-65
2024/01/24 08:05:19;;;;;;;15.52;5.22;;;14.00;58.80;;;;;;5035932;28;20134;-63
2024/01/24 08:07:48;;;;;;;23.17;6.13;;;14.10;58.80;;;;;;5041403;28;20186;-64
2024/01/24 08:10:18;;;;;;;15.15;4.20;;;14.10;58.70;;;;;;5055111;28;20721;-65
2024/01/24 08:12:47;;;;;;;7.82;3.50;;;14.20;58.70;;;;;;5055512;28;20052;-63
2024/01/24 08:15:18;;;;;;;13.23;2.83;;;14.30;58.60;;;;;;5042251;28;20527;-64
2024/01/24 08:17:47;;;;;;;45.22;10.60;;;14.50;58.50;;;;;;5048003;28;20604;-64
2024/01/24 08:20:19;;;;;;;9.90;4.03;;;14.50;58.40;;;;;;5045213;28;20051;-64
2024/01/24 08:22:48;;;;;;;8.20;2.97;;;14.50;58.20;;;;;;5049967;28;20517;-64
2024/01/24 08:25:16;;;;;;;8.68;3.40;;;14.50;58.80;;;;;;5041467;28;20425;-63
2024/01/24 08:27:45;;;;;;;15.52;4.47;;;14.60;58.30;;;;;;5056613;28;20064;-62
2024/01/24 08:30:14;;;;;;;18.60;4.90;;;14.60;58.20;;;;;;5052758;28;20056;-63
2024/01/24 08:32:44;;;;;;;15.25;3.03;;;14.60;58.40;;;;;;5054831;28;20059;-64
2024/01/24 08:35:12;;;;;;;17.35;4.72;;;14.70;58.40;;;;;;5037943;28;20061;-64
2024/01/24 08:37:41;;;;;;;11.32;3.88;;;14.90;58.40;;;;;;5053456;28;20064;-63
2024/01/24 08:40:10;;;;;;;10.10;4.18;;;15.00;58.30;;;;;;5051003;28;20075;-63
2024/01/24 08:42:41;;;;;;;12.98;4.20;;;15.30;58.40;;;;;;5053698;28;20052;-65
2024/01/24 08:45:10;;;;;;;20.33;5.22;;;15.60;58.40;;;;;;5044779;28;20147;-64
2024/01/24 08:47:39;;;;;;;15.00;5.07;;;15.80;58.20;;;;;;5056982;28;20056;-64
2024/01/24 08:50:10;;;;;;;25.83;6.10;;;16.10;58.00;;;;;;5042632;28;20699;-64
2024/01/24 08:52:38;;;;;;;24.45;6.95;;;16.30;57.80;;;;;;5050804;28;20052;-63
2024/01/24 08:55:08;;;;;;;23.50;6.40;;;16.50;57.90;;;;;;5046086;28;20770;-63
2024/01/24 08:57:36;;;;;;;9.73;3.85;;;16.80;57.80;;;;;;5050155;28;20135;-61
2024/01/24 09:00:07;;;;;;;8.77;3.90;;;17.10;57.50;;;;;;5049906;28;20076;-63
2024/01/24 09:02:36;;;;;;;15.85;3.55;;;17.30;57.30;;;;;;5053688;28;20060;-63
2024/01/24 09:05:05;;;;;;;12.90;3.90;;;17.40;57.20;;;;;;5046522;28;20056;-64
2024/01/24 09:07:35;;;;;;;13.90;4.32;;;17.60;57.40;;;;;;5053057;28;20508;-64
2024/01/24 09:10:04;;;;;;;4.43;2.28;;;17.80;57.10;;;;;;5047088;28;20574;-64
2024/01/24 09:12:32;;;;;;;5.38;2.63;;;18.00;57.00;;;;;;5052689;28;20052;-64
2024/01/24 09:15:01;;;;;;;13.57;3.40;;;18.20;56.90;;;;;;5037373;28;20072;-66
2024/01/24 09:17:30;;;;;;;11.52;3.60;;;18.40;56.80;;;;;;5042905;28;20049;-63
2024/01/24 09:19:58;;;;;;;5.93;3.22;;;18.50;56.50;;;;;;5054085;28;20056;-65
2024/01/24 09:22:27;;;;;;;6.18;1.85;;;18.60;57.00;;;;;;5041734;28;20056;-64
2024/01/24 09:24:57;;;;;;;12.65;2.83;;;18.60;56.30;;;;;;5050264;28;20489;-64
2024/01/24 09:27:25;;;;;;;5.43;2.42;;;18.70;56.30;;;;;;5053064;28;20060;-66
2024/01/24 09:29:54;;;;;;;8.73;3.05;;;18.80;56.30;;;;;;5049065;28;20110;-63
2024/01/24 09:32:22;;;;;;;4.80;2.20;;;18.90;56.10;;;;;;5054462;28;20137;-65
2024/01/24 09:34:51;;;;;;;5.45;1.95;;;19.00;56.00;;;;;;5052884;28;20052;-64
2024/01/24 09:37:20;;;;;;;6.70;2.80;;;19.10;56.30;;;;;;5045828;28;20589;-63
2024/01/24 09:39:49;;;;;;;7.10;2.72;;;19.30;56.10;;;;;;5043926;28;20093;-63
2024/01/24 09:42:25;;;;;;;9.32;2.83;;;19.40;56.00;;;;;;5056330;28;20045;-64
2024/01/24 09:44:58;;;;;;;10.88;3.40;;;19.50;55.80;;;;;;5045284;28;20149;-66
2024/01/24 09:47:27;;;;;;;13.63;5.20;;;19.70;55.70;;;;;;5052874;28;20067;-65
2024/01/24 09:49:55;;;;;;;7.00;3.20;;;19.80;55.60;;;;;;5056263;28;20517;-65
2024/01/24 09:52:26;;;;;;;8.88;4.40;;;19.90;55.40;;;;;;5044188;28;20057;-64
2024/01/24 09:54:58;;;;;;;15.77;3.10;;;19.90;55.20;;;;;;5056769;28;20063;-64
2024/01/24 09:57:28;;;;;;;5.10;3.15;;;20.00;55.20;;;;;;5048703;28;20064;-65
2024/01/24 09:59:57;;;;;;;5.88;3.10;;;20.00;55.00;;;;;;5061922;28;20052;-65
2024/01/24 10:02:27;;;;;;;13.50;2.35;;;20.00;55.60;;;;;;5052740;28;20101;-64
2024/01/24 10:04:57;;;;;;;3.30;2.17;;;20.10;55.00;;;;;;5045809;28;20056;-65
2024/01/24 10:07:27;;;;;;;3.63;2.45;;;20.20;54.90;;;;;;5055054;28;20052;-65
2024/01/24 10:10:07;;;;;;;3.95;1.70;;;20.30;54.80;;;;;;5052524;28;20056;-65
2024/01/24 10:12:37;;;;;;;4.95;2.88;;;20.30;54.50;;;;;;5046504;28;20049;-64
2024/01/24 10:15:07;;;;;;;1.58;1.30;;;20.40;54.60;;;;;;5043803;28;20064;-65
2024/01/24 10:17:35;;;;;;;2.45;1.27;;;20.40;54.50;;;;;;5055171;28;20102;-65
2024/01/24 10:20:06;;;;;;;1.50;0.82;;;20.40;54.40;;;;;;5051685;28;20056;-64
2024/01/24 10:22:34;;;;;;;8.10;1.35;;;20.50;54.30;;;;;;5049842;28;20098;-64
2024/01/24 10:25:03;;;;;;;4.30;1.27;;;20.50;54.20;;;;;;5048857;28;20057;-64
2024/01/24 10:27:34;;;;;;;1.85;1.05;;;20.50;54.20;;;;;;5043635;28;20053;-64
2024/01/24 10:30:10;;;;;;;8.65;0.93;;;20.50;54.20;;;;;;5053459;28;20122;-63
2024/01/24 10:32:38;;;;;;;12.32;3.08;;;20.40;54.20;;;;;;5049224;28;20067;-65
2024/01/24 10:35:08;;;;;;;1.73;1.02;;;20.40;54.20;;;;;;5047730;28;20056;-64
2024/01/24 10:37:37;;;;;;;2.35;0.85;;;20.50;54.40;;;;;;5049031;28;20160;-64
2024/01/24 10:40:11;;;;;;;1.65;0.93;;;20.60;54.20;;;;;;5051032;28;20057;-65
2024/01/24 10:42:42;;;;;;;7.50;2.65;;;20.70;54.00;;;;;;5045286;28;20061;-65
2024/01/24 10:45:15;;;;;;;1.48;0.88;;;20.80;53.70;;;;;;5044597;28;20040;-64
2024/01/24 10:47:44;;;;;;;7.20;2.05;;;21.00;53.50;;;;;;5048477;28;20134;-63
2024/01/24 10:50:14;;;;;;;2.38;1.23;;;21.10;53.20;;;;;;5051300;28;20056;-64
2024/01/24 10:52:44;;;;;;;3.47;1.60;;;21.20;53.00;;;;;;5047264;28;20084;-66
2024/01/24 10:55:14;;;;;;;7.63;4.32;;;21.20;52.80;;;;;;5041831;28;20063;-64
2024/01/24 10:57:47;;;;;;;4.30;0.90;;;21.30;52.60;;;;;;5047765;28;20064;-68
2024/01/24 11:00:22;;;;;;;2.17;1.27;;;21.40;52.50;;;;;;5044273;28;20067;-64
2024/01/24 11:02:51;;;;;;;4.03;1.40;;;21.40;52.30;;;;;;5056167;28;20502;-64
2024/01/24 11:05:27;;;;;;;2.55;1.10;;;21.40;52.20;;;;;;5042298;28;20753;-64
2024/01/24 11:08:02;;;;;;;2.42;1.70;;;21.50;52.00;;;;;;5046974;28;20714;-63
2024/01/24 11:10:34;;;;;;;8.30;2.25;;;21.50;51.90;;;;;;5056386;28;20163;-63
2024/01/24 11:13:03;;;;;;;10.75;4.70;;;21.40;51.80;;;;;;5046286;28;20053;-63
2024/01/24 11:15:34;;;;;;;4.72;2.30;;;21.40;51.90;;;;;;5050284;28;20060;-64
2024/01/24 11:18:23;;;;;;;15.80;3.80;;;21.40;51.90;;;;;;5058184;28;20060;-66
2024/01/24 11:20:53;;;;;;;3.60;1.80;;;21.40;51.80;;;;;;5048691;28;20061;-65
2024/01/24 11:23:38;;;;;;;2.65;1.98;;;21.40;51.70;;;;;;5046666;28;20060;-73
2024/01/24 11:26:06;;;;;;;9.73;2.88;;;21.30;51.60;;;;;;5054269;28;20063;-71
2024/01/24 11:28:35;;;;;;;2.55;1.85;;;21.30;51.70;;;;;;5061023;28;20110;-64
2024/01/24 11:31:07;;;;;;;8.77;2.65;;;21.30;51.60;;;;;;5065810;28;20099;-65
2024/01/24 11:33:36;;;;;;;8.50;2.28;;;21.20;51.50;;;;;;5053304;28;20464;-63
2024/01/24 11:36:12;;;;;;;16.45;3.47;;;21.20;51.50;;;;;;5055880;28;20135;-64
2024/01/24 11:38:41;;;;;;;5.63;2.15;;;21.10;51.50;;;;;;5050299;28;21085;-65
2024/01/24 11:41:24;;;;;;;4.72;1.98;;;21.20;51.60;;;;;;5045663;28;20052;-64
2024/01/24 11:43:53;;;;;;;11.80;2.35;;;21.10;51.50;;;;;;5051891;28;20159;-65
2024/01/24 11:46:24;;;;;;;9.20;1.50;;;21.00;51.50;;;;;;5052636;28;20059;-64
2024/01/24 11:48:55;;;;;;;18.00;2.63;;;21.10;51.60;;;;;;5069019;28;20053;-65
2024/01/24 11:51:23;;;;;;;13.70;2.30;;;21.00;51.60;;;;;;5046512;28;20957;-65
2024/01/24 11:54:01;;;;;;;3.95;1.85;;;21.10;51.60;;;;;;5061792;28;20574;-64
2024/01/24 11:56:29;;;;;;;9.05;2.63;;;21.10;51.50;;;;;;5051410;28;20143;-66
2024/01/24 11:58:58;;;;;;;6.38;2.22;;;21.10;51.50;;;;;;5054648;28;20040;-64
2024/01/24 12:01:28;;;;;;;5.38;2.75;;;21.10;51.40;;;;;;5065333;28;20490;-64
2024/01/24 12:03:57;;;;;;;10.60;1.58;;;21.10;51.30;;;;;;5060141;28;20059;-66
2024/01/24 12:06:27;;;;;;;10.63;2.75;;;21.10;51.30;;;;;;5053982;28;20056;-65
2024/01/24 12:08:57;;;;;;;6.18;2.38;;;21.20;51.40;;;;;;5052245;28;20552;-66
2024/01/24 12:11:25;;;;;;;36.60;5.72;;;21.20;51.40;;;;;;5053913;28;20140;-67
2024/01/24 12:13:54;;;;;;;10.50;2.10;;;21.20;51.30;;;;;;5071620;28;20052;-65
2024/01/24 12:16:25;;;;;;;9.38;1.77;;;21.30;51.30;;;;;;5060030;28;20072;-67
2024/01/24 12:18:56;;;;;;;6.07;2.40;;;21.30;51.20;;;;;;5050742;28;20045;-64
2024/01/24 12:21:25;;;;;;;17.73;2.10;;;21.30;51.20;;;;;;5053741;28;20059;-65
2024/01/24 12:23:56;;;;;;;9.40;1.98;;;21.30;51.10;;;;;;5058290;28;20049;-64
2024/01/24 12:26:26;;;;;;;20.67;2.00;;;21.30;51.10;;;;;;5054277;28;20222;-65
2024/01/24 12:28:54;;;;;;;2.58;1.40;;;21.30;51.10;;;;;;5052930;28;20144;-63
2024/01/24 12:31:26;;;;;;;4.72;1.20;;;21.20;51.00;;;;;;5042778;28;20049;-64
2024/01/24 12:33:59;;;;;;;9.77;4.60;;;21.20;51.00;;;;;;5053761;28;20044;-63
2024/01/24 12:36:28;;;;;;;6.18;1.60;;;21.20;51.10;;;;;;5060132;28;20063;-64
2024/01/24 12:38:57;;;;;;;9.15;1.60;;;21.20;51.10;;;;;;5052388;28;20079;-64
2024/01/24 12:41:26;;;;;;;5.30;1.30;;;21.30;51.10;;;;;;5047122;28;20056;-64
2024/01/24 12:43:57;;;;;;;6.13;1.77;;;21.30;51.00;;;;;;5058730;28;20079;-64
2024/01/24 12:46:25;;;;;;;3.70;1.95;;;21.30;50.90;;;;;;5066626;28;20097;-63
2024/01/24 12:48:56;;;;;;;15.18;2.28;;;21.40;50.90;;;;;;5046331;28;20064;-64
2024/01/24 12:51:27;;;;;;;2.25;1.33;;;21.40;50.80;;;;;;5050706;28;20241;-64
2024/01/24 12:53:55;;;;;;;2.58;1.40;;;21.40;50.70;;;;;;5066802;28;20104;-64
2024/01/24 12:56:25;;;;;;;18.63;2.53;;;21.40;50.70;;;;;;5048255;28;20059;-65
2024/01/24 12:58:54;;;;;;;43.58;4.15;;;21.50;50.80;;;;;;5051053;28;20508;-65
2024/01/24 13:01:22;;;;;;;1.70;1.13;;;21.60;50.60;;;;;;5045829;28;20133;-65
2024/01/24 13:03:51;;;;;;;16.77;2.42;;;21.60;50.50;;;;;;5050237;28;20052;-63